Portada
METAR-TAF:

METAR-TAF

Aeroports :

Muş, Turquia

latitud: 38-45N, longitud: 041-40E, altitud: 1266 m

Observació

L'informe es va fer fa 55 minuts, a les 12:50 UTC
Vent 12 kt del Sud/Sud-Est
Temperatura 38°C
Humitat 15%
Pressió 1010 hPa
Visibilitat 10 km o més
Escasses núvols a una alçada de 3500 ft

METAR: LTCK 211250Z 16012KT 9999 FEW035 38/07 Q1010

Hora: 16:45 (13:45 UTC)

Pronòstic

L'informe es va fer fa 3 hores i 5 minuts, a les 10:40 UTC
Pronòstic vàlid del 21 a les 12 UTC al 21 a les 21 UTC
Vent 9 kt del Sud-Oest
Visibilitat 10 km o més
Escasses núvols a una alçada de 3500 ft

TAF: LTCK 211040Z 2112/2121 22009KT 9999 FEW035

Observacions i pronòstics meteorològics de més de 4000 aeroports (METAR i TAF).

Les estacions disponibles són els punts grocs i vermells al mapa.

Posi el ratolí al punt desitjat per veure el nom de l'estació.

Feu clic per veure les observacions i els pronòstics meteorològics.

Per canviar el mapa: feu clic els botons verds amb una creu de color negre per apropar; al botó verd amb un guió per allunyar la imatge; o en les fletxes verdes per a mapes adjacents.


METAR-TAF: